Hamilton, Missouri
Current Conditions -  °F | °C
As of 11:55 AM on Sunday 21 Dec 2014 (Local Time) from KGPH Reporting Station
NA  
Wind Chill: 38°   Ceiling: NA
Heat Index: 43°   Visibility: 10mi
Dew Point: 37°   Wind: 8mph
Humidity: 81%   Direction: 170°S
Pressure: 29.96"   Gusts: NA
Location:  39.74°N, 94°W
Report Text: KGPH 211755Z AUTO 17007KT 10SM 06/03 A2996 RMK AO2
Loading
Personal Weather Stations






























Interactive Weather Map New forecast layout! Learn more

10-Day Weather Forecast

Advertisements
Track Severe Weather on mobile